Time;durP1;ratioP1;P1;durP2;ratioP2;P2;SDS_P1;SDS_P2;PMS_P1;PMS_P2;Temp;Humidity;BMP_temperature;BMP_pressure;BME280_temperature;BME280_humidity;BME280_pressure;Samples;Min_cycle;Max_cycle;Signal;HPM_P1;HPM_P2
2022/08/07 00:01:18;;;;;;;0.20;0.20;;;;;;;;;;1884063;74;26226;-87
2022/08/07 00:03:46;;;;;;;0.20;0.20;;;;;;;;;;1876506;75;26285;-86
2022/08/07 00:06:13;;;;;;;0.30;0.30;;;;;;;;;;1868814;75;26265;-87
2022/08/07 00:08:41;;;;;;;0.20;0.20;;;;;;;;;;1884531;74;26355;-87
2022/08/07 00:11:08;;;;;;;0.20;0.20;;;;;;;;;;1881914;74;26640;-86
2022/08/07 00:13:36;;;;;;;0.10;0.10;;;;;;;;;;1848430;76;26212;-86
2022/08/07 00:16:04;;;;;;;0.30;0.30;;;;;;;;;;1863610;75;26237;-86
2022/08/07 00:18:32;;;;;;;0.25;0.25;;;;;;;;;;1853573;75;26386;-87
2022/08/07 00:21:01;;;;;;;0.20;0.20;;;;;;;;;;1864302;74;26225;-87
2022/08/07 00:23:29;;;;;;;0.30;0.30;;;;;;;;;;1858516;75;26323;-86
2022/08/07 00:25:57;;;;;;;0.20;0.20;;;;;;;;;;1864826;74;26669;-87
2022/08/07 00:28:24;;;;;;;0.20;0.20;;;;;;;;;;1846096;74;26263;-86
2022/08/07 00:30:51;;;;;;;0.20;0.20;;;;;;;;;;1857318;74;26236;-86
2022/08/07 00:33:18;;;;;;;0.30;0.30;;;;;;;;;;1851329;75;26672;-87
2022/08/07 00:35:46;;;;;;;0.30;0.30;;;;;;;;;;1852381;74;26248;-86
2022/08/07 00:38:13;;;;;;;0.30;0.30;;;;;;;;;;1862589;75;26241;-86
2022/08/07 00:40:40;;;;;;;0.20;0.20;;;;;;;;;;1862238;74;26284;-86
2022/08/07 00:43:09;;;;;;;0.20;0.20;;;;;;;;;;1866457;74;26226;-86
2022/08/07 00:45:36;;;;;;;0.13;0.13;;;;;;;;;;1880997;74;26327;-87
2022/08/07 00:48:03;;;;;;;0.30;0.30;;;;;;;;;;1889928;74;26720;-86
2022/08/07 00:50:31;;;;;;;0.30;0.30;;;;;;;;;;1866066;75;26264;-86
2022/08/07 00:52:58;;;;;;;0.28;0.28;;;;;;;;;;1878641;74;26230;-87
2022/08/07 00:55:25;;;;;;;0.30;0.30;;;;;;;;;;1872330;74;26312;-86
2022/08/07 00:57:53;;;;;;;0.20;0.20;;;;;;;;;;1882976;74;26297;-86
2022/08/07 01:00:20;;;;;;;0.20;0.20;;;;;;;;;;1881588;75;26351;-87
2022/08/07 01:02:47;;;;;;;0.20;0.20;;;;;;;;;;1874134;75;26639;-86
2022/08/07 01:05:15;;;;;;;0.10;0.10;;;;;;;;;;1859177;75;26272;-86
2022/08/07 01:07:42;;;;;;;0.10;0.10;;;;;;;;;;1899590;75;26214;-87
2022/08/07 01:10:10;;;;;;;0.20;0.20;;;;;;;;;;1862246;75;26822;-87
2022/08/07 01:12:38;;;;;;;0.20;0.20;;;;;;;;;;1856920;75;26255;-87
2022/08/07 01:15:06;;;;;;;0.10;0.10;;;;;;;;;;1877737;75;26620;-87
2022/08/07 01:17:33;;;;;;;0.20;0.20;;;;;;;;;;1891377;75;26320;-86
2022/08/07 01:20:08;;;;;;;0.20;0.20;;;;;;;;;;1890132;74;26738;-87
2022/08/07 01:22:39;;;;;;;0.20;0.20;;;;;;;;;;1872552;74;26285;-86
2022/08/07 01:25:07;;;;;;;0.10;0.10;;;;;;;;;;1884570;74;26201;-87
2022/08/07 01:27:34;;;;;;;0.20;0.20;;;;;;;;;;1878415;75;26220;-86
2022/08/07 01:30:02;;;;;;;0.15;0.15;;;;;;;;;;1874830;74;26289;-87
2022/08/07 01:32:29;;;;;;;0.13;0.13;;;;;;;;;;1878910;74;26666;-87
2022/08/07 01:34:57;;;;;;;0.20;0.20;;;;;;;;;;1875253;74;26262;-87
2022/08/07 01:37:24;;;;;;;0.17;0.17;;;;;;;;;;1864284;75;26289;-86
2022/08/07 01:39:51;;;;;;;0.20;0.20;;;;;;;;;;1865464;75;26248;-87
2022/08/07 01:42:19;;;;;;;0.20;0.20;;;;;;;;;;1861598;75;26787;-86
2022/08/07 01:44:47;;;;;;;0.10;0.10;;;;;;;;;;1867372;75;26346;-87
2022/08/07 01:47:14;;;;;;;0.20;0.20;;;;;;;;;;1861959;74;26284;-86
2022/08/07 01:49:41;;;;;;;0.10;0.10;;;;;;;;;;1866928;75;26829;-87
2022/08/07 01:52:09;;;;;;;0.10;0.10;;;;;;;;;;1871628;74;26312;-87
2022/08/07 01:54:38;;;;;;;0.10;0.10;;;;;;;;;;1882988;75;26214;-86
2022/08/07 01:57:06;;;;;;;0.10;0.10;;;;;;;;;;1869578;75;27061;-87
2022/08/07 01:59:35;;;;;;;0.10;0.10;;;;;;;;;;1896266;74;26241;-87
2022/08/07 02:02:06;;;;;;;0.20;0.20;;;;;;;;;;1877027;74;26249;-86
2022/08/07 02:04:35;;;;;;;0.15;0.15;;;;;;;;;;1869384;75;26222;-87
2022/08/07 02:07:04;;;;;;;0.10;0.10;;;;;;;;;;1882199;74;26257;-86
2022/08/07 02:09:32;;;;;;;0.20;0.20;;;;;;;;;;1858743;75;26262;-87
2022/08/07 02:12:15;;;;;;;0.10;0.10;;;;;;;;;;1868948;74;26317;-87
2022/08/07 02:14:30;;;;;;;0.20;0.20;;;;;;;;;;1868893;74;26340;-86
2022/08/07 02:16:58;;;;;;;0.15;0.15;;;;;;;;;;1888352;74;26234;-86
2022/08/07 02:19:26;;;;;;;0.10;0.10;;;;;;;;;;1889722;75;26300;-87
2022/08/07 02:21:54;;;;;;;0.10;0.10;;;;;;;;;;1809402;77;27021;-87
2022/08/07 02:24:21;;;;;;;0.20;0.20;;;;;;;;;;1814668;76;26303;-87
2022/08/07 02:26:49;;;;;;;0.20;0.20;;;;;;;;;;1794648;78;26670;-87
2022/08/07 02:29:17;;;;;;;0.10;0.10;;;;;;;;;;1829294;76;26283;-87
2022/08/07 02:31:45;;;;;;;0.65;0.17;;;;;;;;;;1835031;76;26700;-87
2022/08/07 02:34:13;;;;;;;0.20;0.20;;;;;;;;;;1896875;74;26254;-87
2022/08/07 02:36:41;;;;;;;0.28;0.28;;;;;;;;;;1879671;74;26306;-87
2022/08/07 02:39:09;;;;;;;0.15;0.15;;;;;;;;;;1878375;74;26298;-87
2022/08/07 02:41:37;;;;;;;0.20;0.20;;;;;;;;;;1860464;74;25368;-87
2022/08/07 02:44:04;;;;;;;0.15;0.15;;;;;;;;;;1850163;75;26212;-87
2022/08/07 02:46:33;;;;;;;0.20;0.20;;;;;;;;;;1879000;74;26320;-87
2022/08/07 02:49:00;;;;;;;0.20;0.20;;;;;;;;;;1871470;75;26682;-87
2022/08/07 02:51:28;;;;;;;0.10;0.10;;;;;;;;;;1887202;74;26199;-87
2022/08/07 02:53:56;;;;;;;0.17;0.17;;;;;;;;;;1866715;74;26718;-87
2022/08/07 02:56:25;;;;;;;0.10;0.10;;;;;;;;;;1869228;74;26388;-87
2022/08/07 02:58:53;;;;;;;0.28;0.28;;;;;;;;;;1856538;74;26273;-87
2022/08/07 03:01:21;;;;;;;0.20;0.20;;;;;;;;;;1878444;74;26819;-87
2022/08/07 03:03:49;;;;;;;0.17;0.17;;;;;;;;;;1872372;74;26213;-86
2022/08/07 03:06:19;;;;;;;0.17;0.17;;;;;;;;;;1851126;74;26366;-87
2022/08/07 03:08:46;;;;;;;0.20;0.20;;;;;;;;;;1860597;74;26196;-86
2022/08/07 03:11:14;;;;;;;0.10;0.10;;;;;;;;;;1862377;75;26209;-87
2022/08/07 03:13:41;;;;;;;0.23;0.23;;;;;;;;;;1861955;74;26184;-87
2022/08/07 03:16:09;;;;;;;0.10;0.10;;;;;;;;;;1874087;75;26779;-87
2022/08/07 03:18:37;;;;;;;0.20;0.20;;;;;;;;;;1865396;74;26234;-87
2022/08/07 03:21:05;;;;;;;0.17;0.17;;;;;;;;;;1872301;74;26226;-86
2022/08/07 03:23:34;;;;;;;0.23;0.23;;;;;;;;;;1866672;74;26292;-87
2022/08/07 03:26:02;;;;;;;0.20;0.20;;;;;;;;;;1895067;74;26824;-87
2022/08/07 03:28:30;;;;;;;0.23;0.23;;;;;;;;;;1876327;75;26220;-86
2022/08/07 03:33:43;;;;;;;0.20;0.20;;;;;;;;;;1879152;74;26173;-87
2022/08/07 03:36:13;;;;;;;0.20;0.20;;;;;;;;;;1874239;74;26287;-87
2022/08/07 03:38:41;;;;;;;0.20;0.20;;;;;;;;;;1872355;75;26197;-86
2022/08/07 03:41:09;;;;;;;0.20;0.20;;;;;;;;;;1855364;74;26668;-87
2022/08/07 03:43:37;;;;;;;0.05;0.05;;;;;;;;;;1877386;74;26304;-86
2022/08/07 03:46:05;;;;;;;0.30;0.30;;;;;;;;;;1876025;75;26194;-87
2022/08/07 03:48:33;;;;;;;0.20;0.20;;;;;;;;;;1873639;74;27215;-87
2022/08/07 03:51:02;;;;;;;0.20;0.20;;;;;;;;;;1861275;74;26256;-87
2022/08/07 03:53:29;;;;;;;0.20;0.20;;;;;;;;;;1869813;74;26237;-87
2022/08/07 03:55:58;;;;;;;0.20;0.20;;;;;;;;;;1881912;74;26209;-86
2022/08/07 03:58:25;;;;;;;0.20;0.20;;;;;;;;;;1858593;74;26265;-87
2022/08/07 04:00:53;;;;;;;0.13;0.13;;;;;;;;;;1862917;74;26306;-87
2022/08/07 04:03:21;;;;;;;0.10;0.10;;;;;;;;;;1851884;75;26264;-87
2022/08/07 04:05:50;;;;;;;0.30;0.30;;;;;;;;;;1870411;74;26217;-86
2022/08/07 04:08:17;;;;;;;0.20;0.20;;;;;;;;;;1870250;74;26267;-87
2022/08/07 04:10:47;;;;;;;0.15;0.15;;;;;;;;;;1865657;74;26284;-86
2022/08/07 04:13:15;;;;;;;0.20;0.20;;;;;;;;;;1872133;74;26346;-86
2022/08/07 04:15:43;;;;;;;0.10;0.10;;;;;;;;;;1850212;74;26251;-88
2022/08/07 04:18:14;;;;;;;0.10;0.10;;;;;;;;;;1874846;74;26261;-86
2022/08/07 04:20:41;;;;;;;0.05;0.05;;;;;;;;;;1871333;74;26300;-87
2022/08/07 04:23:09;;;;;;;0.23;0.23;;;;;;;;;;1851933;75;26224;-87
2022/08/07 04:25:41;;;;;;;0.20;0.20;;;;;;;;;;1887739;74;26234;-87
2022/08/07 04:28:11;;;;;;;0.20;0.20;;;;;;;;;;1877153;74;26331;-87
2022/08/07 04:30:39;;;;;;;0.20;0.20;;;;;;;;;;1856978;75;26326;-87
2022/08/07 04:33:07;;;;;;;0.17;0.17;;;;;;;;;;1856930;74;26244;-87
2022/08/07 04:35:36;;;;;;;0.10;0.10;;;;;;;;;;1873585;74;26780;-87
2022/08/07 04:38:07;;;;;;;0.20;0.20;;;;;;;;;;1862554;75;26181;-86
2022/08/07 04:40:36;;;;;;;0.20;0.20;;;;;;;;;;1874221;74;26330;-86
2022/08/07 04:43:03;;;;;;;0.10;0.10;;;;;;;;;;1905093;75;26221;-83
2022/08/07 04:45:35;;;;;;;0.20;0.20;;;;;;;;;;1868791;72;26243;-87
2022/08/07 04:48:04;;;;;;;0.20;0.20;;;;;;;;;;1880723;74;26334;-86
2022/08/07 04:50:35;;;;;;;0.20;0.20;;;;;;;;;;1880580;73;26261;-87
2022/08/07 04:53:13;;;;;;;0.10;0.10;;;;;;;;;;1880856;72;26204;-88
2022/08/07 04:55:51;;;;;;;0.10;0.10;;;;;;;;;;1886353;72;26320;-87
2022/08/07 04:58:25;;;;;;;0.20;0.20;;;;;;;;;;1878773;72;26233;-86
2022/08/07 05:00:54;;;;;;;0.17;0.17;;;;;;;;;;1854905;73;26188;-87
2022/08/07 05:03:23;;;;;;;0.20;0.20;;;;;;;;;;1887948;72;26226;-87
2022/08/07 05:05:53;;;;;;;0.20;0.20;;;;;;;;;;1872503;74;26220;-86
2022/08/07 05:08:22;;;;;;;0.30;0.30;;;;;;;;;;1867557;73;26185;-86
2022/08/07 05:10:51;;;;;;;0.20;0.20;;;;;;;;;;1858284;73;26265;-87
2022/08/07 05:13:19;;;;;;;0.20;0.20;;;;;;;;;;1882925;73;26226;-87
2022/08/07 05:15:48;;;;;;;0.10;0.10;;;;;;;;;;1879956;74;26670;-87
2022/08/07 05:18:20;;;;;;;0.20;0.20;;;;;;;;;;1877203;74;26756;-86
2022/08/07 05:20:49;;;;;;;0.30;0.30;;;;;;;;;;1864883;75;26322;-86
2022/08/07 05:23:18;;;;;;;0.20;0.20;;;;;;;;;;1874958;75;26662;-86
2022/08/07 05:25:45;;;;;;;0.20;0.20;;;;;;;;;;1887981;74;26678;-87
2022/08/07 05:28:14;;;;;;;0.20;0.20;;;;;;;;;;1875194;75;26280;-87
2022/08/07 05:30:41;;;;;;;0.20;0.20;;;;;;;;;;1870234;75;26186;-87
2022/08/07 05:33:09;;;;;;;0.20;0.20;;;;;;;;;;1878835;74;26225;-86
2022/08/07 05:35:36;;;;;;;0.30;0.30;;;;;;;;;;1881078;74;26236;-87
2022/08/07 05:38:05;;;;;;;0.20;0.20;;;;;;;;;;1865291;74;26227;-87
2022/08/07 05:40:34;;;;;;;0.20;0.20;;;;;;;;;;1878896;75;26254;-86
2022/08/07 05:43:01;;;;;;;0.20;0.20;;;;;;;;;;1881414;74;26266;-86
2022/08/07 05:45:29;;;;;;;0.30;0.30;;;;;;;;;;1883164;74;26768;-86
2022/08/07 05:47:56;;;;;;;0.20;0.20;;;;;;;;;;1876079;74;26260;-87
2022/08/07 05:50:24;;;;;;;0.20;0.20;;;;;;;;;;1866538;74;26290;-87
2022/08/07 05:52:52;;;;;;;0.30;0.30;;;;;;;;;;1877678;75;26193;-86
2022/08/07 05:55:19;;;;;;;0.40;0.40;;;;;;;;;;1878687;75;26307;-87
2022/08/07 05:57:47;;;;;;;0.28;0.28;;;;;;;;;;1861654;74;26735;-86
2022/08/07 06:00:14;;;;;;;0.30;0.30;;;;;;;;;;1849259;75;26377;-86
2022/08/07 06:02:43;;;;;;;0.20;0.20;;;;;;;;;;1893262;74;26718;-86
2022/08/07 06:05:12;;;;;;;0.30;0.30;;;;;;;;;;1886502;75;26763;-86
2022/08/07 06:07:39;;;;;;;0.30;0.30;;;;;;;;;;1880789;74;26767;-86
2022/08/07 06:10:08;;;;;;;0.50;0.50;;;;;;;;;;1877890;75;26327;-87
2022/08/07 06:12:35;;;;;;;0.30;0.30;;;;;;;;;;1856672;74;26180;-86
2022/08/07 06:15:03;;;;;;;0.37;0.37;;;;;;;;;;1876971;74;26802;-86
2022/08/07 06:17:31;;;;;;;0.30;0.30;;;;;;;;;;1895101;75;26328;-87
2022/08/07 06:19:59;;;;;;;0.30;0.30;;;;;;;;;;1858296;74;26819;-86
2022/08/07 06:22:27;;;;;;;0.20;0.20;;;;;;;;;;1866696;75;26275;-86
2022/08/07 06:24:55;;;;;;;0.28;0.28;;;;;;;;;;1865528;75;26653;-86
2022/08/07 06:27:23;;;;;;;0.30;0.30;;;;;;;;;;1870602;74;26614;-86
2022/08/07 06:29:51;;;;;;;0.33;0.33;;;;;;;;;;1878906;75;26298;-87
2022/08/07 06:32:18;;;;;;;0.20;0.20;;;;;;;;;;1878630;74;26632;-87
2022/08/07 06:34:45;;;;;;;0.53;0.40;;;;;;;;;;1870061;75;26236;-87
2022/08/07 06:37:12;;;;;;;0.30;0.30;;;;;;;;;;1867309;74;26354;-86
2022/08/07 06:39:40;;;;;;;0.40;0.40;;;;;;;;;;1871756;74;26735;-87
2022/08/07 06:42:09;;;;;;;0.30;0.30;;;;;;;;;;1877494;75;26652;-86
2022/08/07 06:44:37;;;;;;;0.40;0.40;;;;;;;;;;1847180;74;26661;-86
2022/08/07 06:47:04;;;;;;;0.30;0.30;;;;;;;;;;1873259;74;26226;-86
2022/08/07 06:49:32;;;;;;;0.40;0.40;;;;;;;;;;1885011;74;26270;-87
2022/08/07 06:52:01;;;;;;;0.47;0.47;;;;;;;;;;1876329;75;26256;-87
2022/08/07 06:54:28;;;;;;;0.30;0.30;;;;;;;;;;1894383;74;26230;-87
2022/08/07 06:56:56;;;;;;;0.40;0.40;;;;;;;;;;1885223;74;26207;-86
2022/08/07 06:59:25;;;;;;;0.50;0.50;;;;;;;;;;1864749;74;26245;-87
2022/08/07 07:01:55;;;;;;;0.40;0.40;;;;;;;;;;1859834;75;26232;-86
2022/08/07 07:04:24;;;;;;;0.40;0.40;;;;;;;;;;1861054;75;26256;-86
2022/08/07 07:06:51;;;;;;;0.42;0.42;;;;;;;;;;1865311;74;26282;-87
2022/08/07 07:09:20;;;;;;;0.40;0.40;;;;;;;;;;1856936;74;26279;-86
2022/08/07 07:11:49;;;;;;;0.30;0.30;;;;;;;;;;1858417;75;26190;-86
2022/08/07 07:14:17;;;;;;;0.33;0.33;;;;;;;;;;1877208;74;26333;-86
2022/08/07 07:16:45;;;;;;;0.98;0.40;;;;;;;;;;1888524;75;26626;-87
2022/08/07 07:19:14;;;;;;;0.50;0.50;;;;;;;;;;1867968;74;26355;-87
2022/08/07 07:21:42;;;;;;;0.47;0.47;;;;;;;;;;1878811;74;26312;-85
2022/08/07 07:24:09;;;;;;;0.33;0.33;;;;;;;;;;1880113;74;26724;-86
2022/08/07 07:26:38;;;;;;;0.40;0.40;;;;;;;;;;1896431;74;26211;-86
2022/08/07 07:29:07;;;;;;;0.40;0.40;;;;;;;;;;1862598;74;26287;-87
2022/08/07 07:31:39;;;;;;;0.42;0.35;;;;;;;;;;1888542;74;26335;-87
2022/08/07 07:34:08;;;;;;;0.50;0.50;;;;;;;;;;1867031;74;26674;-86
2022/08/07 07:36:37;;;;;;;0.30;0.30;;;;;;;;;;1868575;75;26583;-86
2022/08/07 07:39:05;;;;;;;0.50;0.50;;;;;;;;;;1872027;74;26222;-86
2022/08/07 07:41:33;;;;;;;0.40;0.40;;;;;;;;;;1877692;74;26217;-86
2022/08/07 07:44:01;;;;;;;0.30;0.30;;;;;;;;;;1895393;74;26257;-86
2022/08/07 07:46:30;;;;;;;0.42;0.42;;;;;;;;;;1880386;74;26239;-86
2022/08/07 07:48:58;;;;;;;0.60;0.60;;;;;;;;;;1875019;75;26254;-87
2022/08/07 07:51:27;;;;;;;0.35;0.35;;;;;;;;;;1855250;75;26221;-87
2022/08/07 07:53:56;;;;;;;0.50;0.50;;;;;;;;;;1853329;74;26326;-86
2022/08/07 07:56:24;;;;;;;0.30;0.30;;;;;;;;;;1863418;75;26236;-87
2022/08/07 07:58:52;;;;;;;0.37;0.37;;;;;;;;;;1869972;74;26322;-86
2022/08/07 08:01:21;;;;;;;0.40;0.40;;;;;;;;;;1871556;74;26249;-86
2022/08/07 08:03:48;;;;;;;0.40;0.40;;;;;;;;;;1872116;74;27055;-86
2022/08/07 08:06:17;;;;;;;0.60;0.60;;;;;;;;;;1856506;75;26225;-87
2022/08/07 08:08:45;;;;;;;0.50;0.50;;;;;;;;;;1847856;75;26221;-87
2022/08/07 08:11:13;;;;;;;0.55;0.55;;;;;;;;;;1871484;74;26239;-86
2022/08/07 08:13:42;;;;;;;0.50;0.50;;;;;;;;;;1861596;74;26170;-86
2022/08/07 08:16:10;;;;;;;0.50;0.50;;;;;;;;;;1859011;74;26294;-86
2022/08/07 08:18:38;;;;;;;0.30;0.30;;;;;;;;;;1873976;74;26280;-86
2022/08/07 08:27:03;;;;;;;0.50;0.50;;;;;;;;;;1863791;76;27163;-86
2022/08/07 08:29:07;;;;;;;0.50;0.50;;;;;;;;;;1877664;74;26224;-86
2022/08/07 08:31:36;;;;;;;0.50;0.50;;;;;;;;;;1892930;74;26274;-87
2022/08/07 08:34:05;;;;;;;0.30;0.30;;;;;;;;;;1879278;75;26273;-86
2022/08/07 08:36:33;;;;;;;0.40;0.40;;;;;;;;;;1878235;75;26229;-87
2022/08/07 08:39:02;;;;;;;0.45;0.45;;;;;;;;;;1892267;74;26690;-86
2022/08/07 08:41:31;;;;;;;0.40;0.40;;;;;;;;;;1882636;74;26699;-86
2022/08/07 08:44:05;;;;;;;0.40;0.40;;;;;;;;;;1881213;74;26654;-87
2022/08/07 08:46:40;;;;;;;0.45;0.45;;;;;;;;;;1867931;76;26224;-86
2022/08/07 08:49:11;;;;;;;0.40;0.40;;;;;;;;;;1865723;76;26748;-87
2022/08/07 08:51:43;;;;;;;0.42;0.42;;;;;;;;;;1868187;74;26299;-87
2022/08/07 08:54:12;;;;;;;0.37;0.35;;;;;;;;;;1863873;75;26290;-87
2022/08/07 08:56:40;;;;;;;0.50;0.50;;;;;;;;;;1872597;75;26363;-86
2022/08/07 08:59:15;;;;;;;0.40;0.40;;;;;;;;;;1874327;75;26252;-87
2022/08/07 09:02:00;;;;;;;0.40;0.40;;;;;;;;;;1894185;75;26319;-87
2022/08/07 09:04:29;;;;;;;0.40;0.40;;;;;;;;;;1864917;75;26210;-86
2022/08/07 09:07:07;;;;;;;0.33;0.33;;;;;;;;;;1887422;74;26227;-87
2022/08/07 09:09:39;;;;;;;0.40;0.40;;;;;;;;;;1859115;74;26810;-86
2022/08/07 09:12:24;;;;;;;0.40;0.40;;;;;;;;;;1860510;75;26260;-86
2022/08/07 09:14:56;;;;;;;0.40;0.37;;;;;;;;;;1897999;74;26307;-87
2022/08/07 09:17:25;;;;;;;0.40;0.40;;;;;;;;;;1869424;74;26709;-86
2022/08/07 09:19:55;;;;;;;0.50;0.50;;;;;;;;;;1873568;75;26698;-86
2022/08/07 09:22:24;;;;;;;0.40;0.40;;;;;;;;;;1856066;74;26249;-86
2022/08/07 09:25:11;;;;;;;0.30;0.30;;;;;;;;;;1886612;74;26227;-86
2022/08/07 09:27:56;;;;;;;0.40;0.40;;;;;;;;;;1863772;74;26249;-86
2022/08/07 09:30:24;;;;;;;0.50;0.50;;;;;;;;;;1881848;74;26286;-86
2022/08/07 09:33:05;;;;;;;0.30;0.30;;;;;;;;;;1883751;74;26234;-86
2022/08/07 09:35:34;;;;;;;0.30;0.30;;;;;;;;;;1881327;75;26393;-86
2022/08/07 09:38:03;;;;;;;0.40;0.40;;;;;;;;;;1878181;75;26956;-86
2022/08/07 09:40:48;;;;;;;0.50;0.50;;;;;;;;;;1860365;74;27091;-85
2022/08/07 09:43:17;;;;;;;0.40;0.40;;;;;;;;;;1868457;75;26260;-85
2022/08/07 09:45:46;;;;;;;0.30;0.30;;;;;;;;;;1881032;76;26217;-86
2022/08/07 09:48:21;;;;;;;0.40;0.40;;;;;;;;;;1870589;75;26280;-86
2022/08/07 09:51:06;;;;;;;0.40;0.40;;;;;;;;;;1868421;74;26361;-86
2022/08/07 09:53:37;;;;;;;0.40;0.40;;;;;;;;;;1866163;75;26309;-86
2022/08/07 09:56:14;;;;;;;0.30;0.30;;;;;;;;;;1866950;76;26202;-87
2022/08/07 09:58:58;;;;;;;0.50;0.50;;;;;;;;;;1861239;74;26229;-87
2022/08/07 10:01:27;;;;;;;0.40;0.40;;;;;;;;;;1862973;74;26335;-86
2022/08/07 10:04:07;;;;;;;0.40;0.40;;;;;;;;;;1865067;74;26717;-86
2022/08/07 10:06:38;;;;;;;0.40;0.40;;;;;;;;;;1873460;74;26261;-86
2022/08/07 10:09:23;;;;;;;0.37;0.37;;;;;;;;;;1870104;74;26757;-86
2022/08/07 10:11:55;;;;;;;0.30;0.30;;;;;;;;;;1890895;74;26664;-87
2022/08/07 10:14:27;;;;;;;0.40;0.40;;;;;;;;;;1869201;75;26701;-86
2022/08/07 10:17:13;;;;;;;0.40;0.40;;;;;;;;;;1869853;75;26322;-86
2022/08/07 10:19:41;;;;;;;0.40;0.40;;;;;;;;;;1873159;74;26234;-87
2022/08/07 10:22:19;;;;;;;0.40;0.40;;;;;;;;;;1856421;75;26203;-87
2022/08/07 10:24:51;;;;;;;0.50;0.50;;;;;;;;;;1899086;74;26243;-86
2022/08/07 10:27:28;;;;;;;0.30;0.30;;;;;;;;;;1869626;74;26269;-87
2022/08/07 10:30:07;;;;;;;0.30;0.30;;;;;;;;;;1895678;75;26292;-86
2022/08/07 10:32:51;;;;;;;0.40;0.40;;;;;;;;;;1882492;74;26636;-85
2022/08/07 10:35:23;;;;;;;0.42;0.42;;;;;;;;;;1896996;74;26745;-87
2022/08/07 10:37:52;;;;;;;0.30;0.30;;;;;;;;;;1871451;75;26760;-86
2022/08/07 10:40:20;;;;;;;0.57;0.57;;;;;;;;;;1859800;74;26829;-87
2022/08/07 10:42:55;;;;;;;0.53;0.53;;;;;;;;;;1873345;74;26335;-86
2022/08/07 10:45:31;;;;;;;0.47;0.47;;;;;;;;;;1852793;75;26686;-86
2022/08/07 10:48:00;;;;;;;0.50;0.50;;;;;;;;;;1901931;74;26265;-87
2022/08/07 10:50:32;;;;;;;0.57;0.57;;;;;;;;;;1858583;75;26253;-86
2022/08/07 10:53:18;;;;;;;0.40;0.40;;;;;;;;;;1854254;75;26229;-86
2022/08/07 10:55:49;;;;;;;0.40;0.40;;;;;;;;;;1840667;77;26841;-87
2022/08/07 10:58:29;;;;;;;0.37;0.30;;;;;;;;;;1809336;76;26261;-86
2022/08/07 11:01:04;;;;;;;0.40;0.40;;;;;;;;;;1820010;75;26601;-87
2022/08/07 11:03:39;;;;;;;0.40;0.40;;;;;;;;;;1876179;74;26208;-87
2022/08/07 11:06:13;;;;;;;0.50;0.50;;;;;;;;;;1852525;75;26257;-87
2022/08/07 11:08:45;;;;;;;0.50;0.50;;;;;;;;;;1866887;74;26701;-88
2022/08/07 11:11:23;;;;;;;0.50;0.50;;;;;;;;;;1875137;74;26319;-87
2022/08/07 11:13:55;;;;;;;0.60;0.60;;;;;;;;;;1852439;75;26237;-88
2022/08/07 11:16:26;;;;;;;0.50;0.50;;;;;;;;;;1876378;74;26246;-87
2022/08/07 11:18:55;;;;;;;0.40;0.40;;;;;;;;;;1879660;76;26248;-87
2022/08/07 11:21:40;;;;;;;0.50;0.50;;;;;;;;;;1883868;74;26710;-87
2022/08/07 11:24:09;;;;;;;0.60;0.60;;;;;;;;;;1879371;74;26284;-87
2022/08/07 11:26:48;;;;;;;0.60;0.60;;;;;;;;;;1883881;74;26225;-88
2022/08/07 11:29:24;;;;;;;0.60;0.60;;;;;;;;;;1856664;74;26252;-87
2022/08/07 11:31:53;;;;;;;0.50;0.50;;;;;;;;;;1889954;74;26702;-87
2022/08/07 11:34:21;;;;;;;0.50;0.50;;;;;;;;;;1875010;75;26309;-86
2022/08/07 11:36:59;;;;;;;0.50;0.50;;;;;;;;;;1870476;74;26300;-87
2022/08/07 11:39:43;;;;;;;0.40;0.40;;;;;;;;;;1849942;74;26341;-87
2022/08/07 11:42:14;;;;;;;0.50;0.50;;;;;;;;;;1867592;74;26278;-87
2022/08/07 11:44:55;;;;;;;0.60;0.60;;;;;;;;;;1881583;75;26345;-87
2022/08/07 11:47:24;;;;;;;0.50;0.50;;;;;;;;;;1887487;74;26341;-87
2022/08/07 11:50:00;;;;;;;0.50;0.50;;;;;;;;;;1876516;75;26235;-87
2022/08/07 11:52:29;;;;;;;0.60;0.60;;;;;;;;;;1864355;75;26324;-87
2022/08/07 11:55:07;;;;;;;0.42;0.42;;;;;;;;;;1835068;74;26652;-87
2022/08/07 11:57:51;;;;;;;0.50;0.50;;;;;;;;;;1874373;74;26876;-87
2022/08/07 12:00:36;;;;;;;0.60;0.60;;;;;;;;;;1869651;74;26332;-87
2022/08/07 12:03:20;;;;;;;0.60;0.60;;;;;;;;;;1858444;75;26292;-87
2022/08/07 12:06:01;;;;;;;0.60;0.60;;;;;;;;;;1858446;74;26215;-87
2022/08/07 12:08:35;;;;;;;0.53;0.53;;;;;;;;;;1862767;75;26300;-87
2022/08/07 12:11:04;;;;;;;0.50;0.50;;;;;;;;;;1877338;74;26797;-88
2022/08/07 12:13:42;;;;;;;0.50;0.50;;;;;;;;;;1883252;74;26656;-87
2022/08/07 12:16:11;;;;;;;0.60;0.60;;;;;;;;;;1883434;74;26202;-87
2022/08/07 12:18:42;;;;;;;0.60;0.60;;;;;;;;;;1862735;74;26253;-86
2022/08/07 12:21:14;;;;;;;0.50;0.50;;;;;;;;;;1877640;75;26251;-86
2022/08/07 12:23:46;;;;;;;0.70;0.70;;;;;;;;;;1883338;75;26229;-87
2022/08/07 12:26:17;;;;;;;0.60;0.60;;;;;;;;;;1890021;74;26323;-88
2022/08/07 12:28:49;;;;;;;0.70;0.70;;;;;;;;;;1877546;75;26218;-88
2022/08/07 12:31:17;;;;;;;0.65;0.65;;;;;;;;;;1868694;75;26217;-88
2022/08/07 12:33:46;;;;;;;0.50;0.50;;;;;;;;;;1841072;76;26268;-87
2022/08/07 12:36:14;;;;;;;0.62;0.62;;;;;;;;;;1880679;74;26288;-87
2022/08/07 12:38:44;;;;;;;0.70;0.70;;;;;;;;;;1884458;75;26715;-87
2022/08/07 12:41:12;;;;;;;1.15;0.62;;;;;;;;;;1898068;74;26223;-88
2022/08/07 12:43:41;;;;;;;0.53;0.53;;;;;;;;;;1859126;75;26254;-88
2022/08/07 12:46:09;;;;;;;0.55;0.55;;;;;;;;;;1868809;75;26219;-87
2022/08/07 12:48:55;;;;;;;0.50;0.50;;;;;;;;;;1849749;75;26193;-87
2022/08/07 12:51:26;;;;;;;0.62;0.62;;;;;;;;;;1851688;75;26224;-88
2022/08/07 12:53:55;;;;;;;0.50;0.50;;;;;;;;;;1862103;75;26288;-88
2022/08/07 12:56:27;;;;;;;0.60;0.60;;;;;;;;;;1857309;74;26222;-88
2022/08/07 12:58:55;;;;;;;0.60;0.60;;;;;;;;;;1890709;74;26370;-88
2022/08/07 13:01:29;;;;;;;0.40;0.40;;;;;;;;;;1852607;75;26252;-87
2022/08/07 13:04:07;;;;;;;0.50;0.50;;;;;;;;;;1854888;75;26283;-87
2022/08/07 13:06:42;;;;;;;0.60;0.60;;;;;;;;;;1856408;75;26319;-87
2022/08/07 13:09:27;;;;;;;0.40;0.40;;;;;;;;;;1834344;75;26213;-88
2022/08/07 13:12:12;;;;;;;0.50;0.50;;;;;;;;;;1873423;74;26343;-88
2022/08/07 13:14:57;;;;;;;0.50;0.50;;;;;;;;;;1866592;75;26247;-87
2022/08/07 13:17:26;;;;;;;0.60;0.60;;;;;;;;;;1874292;75;26665;-87
2022/08/07 13:19:55;;;;;;;0.50;0.50;;;;;;;;;;1874733;74;27032;-88
2022/08/07 13:22:32;;;;;;;0.47;0.47;;;;;;;;;;1874668;75;26262;-88
2022/08/07 13:25:01;;;;;;;0.40;0.40;;;;;;;;;;1880970;74;26281;-87
2022/08/07 13:27:33;;;;;;;0.50;0.50;;;;;;;;;;1874990;74;26241;-87
2022/08/07 13:30:02;;;;;;;0.42;0.42;;;;;;;;;;1871861;75;26239;-88
2022/08/07 13:32:39;;;;;;;0.60;0.60;;;;;;;;;;1887645;74;26229;-87
2022/08/07 13:35:08;;;;;;;0.50;0.50;;;;;;;;;;1880451;74;26269;-87
2022/08/07 13:37:39;;;;;;;0.47;0.47;;;;;;;;;;1874844;74;26262;-87
2022/08/07 13:40:07;;;;;;;0.62;0.62;;;;;;;;;;1869770;75;26652;-88
2022/08/07 13:42:35;;;;;;;0.50;0.50;;;;;;;;;;1865914;75;26230;-88
2022/08/07 13:45:03;;;;;;;0.50;0.50;;;;;;;;;;1875637;75;26714;-88
2022/08/07 13:47:31;;;;;;;0.50;0.50;;;;;;;;;;1897086;74;26258;-88
2022/08/07 13:50:00;;;;;;;0.55;0.55;;;;;;;;;;1876337;75;26329;-88
2022/08/07 13:52:28;;;;;;;0.57;0.57;;;;;;;;;;1878582;74;26253;-88
2022/08/07 13:54:57;;;;;;;0.50;0.50;;;;;;;;;;1881611;74;26242;-88
2022/08/07 13:57:26;;;;;;;0.78;0.78;;;;;;;;;;1878159;74;26842;-88
2022/08/07 13:59:56;;;;;;;0.50;0.50;;;;;;;;;;1885742;74;26225;-88
2022/08/07 14:02:25;;;;;;;0.50;0.50;;;;;;;;;;1879878;74;26284;-88
2022/08/07 14:04:56;;;;;;;0.40;0.40;;;;;;;;;;1887065;74;26624;-88
2022/08/07 14:07:25;;;;;;;0.60;0.60;;;;;;;;;;1875286;74;26349;-88
2022/08/07 14:09:54;;;;;;;0.37;0.37;;;;;;;;;;1867350;76;26223;-88
2022/08/07 14:12:44;;;;;;;0.50;0.50;;;;;;;;;;1884016;74;26246;-88
2022/08/07 14:15:09;;;;;;;0.55;0.55;;;;;;;;;;1877943;74;26440;-88
2022/08/07 14:17:38;;;;;;;0.50;0.50;;;;;;;;;;1875654;75;26223;-88
2022/08/07 14:20:10;;;;;;;0.42;0.42;;;;;;;;;;1889317;74;26596;-88
2022/08/07 14:22:39;;;;;;;0.50;0.50;;;;;;;;;;1880686;74;26311;-88
2022/08/07 14:25:10;;;;;;;0.60;0.60;;;;;;;;;;1888740;74;26202;-88
2022/08/07 14:27:39;;;;;;;0.50;0.50;;;;;;;;;;1872028;74;26750;-88
2022/08/07 14:30:08;;;;;;;0.50;0.50;;;;;;;;;;1877363;75;26700;-88
2022/08/07 14:32:41;;;;;;;0.50;0.50;;;;;;;;;;1883063;74;26254;-89
2022/08/07 14:35:10;;;;;;;0.53;0.53;;;;;;;;;;1867321;74;26329;-88
2022/08/07 14:37:38;;;;;;;0.40;0.40;;;;;;;;;;1878881;74;26790;-87
2022/08/07 14:40:06;;;;;;;0.50;0.50;;;;;;;;;;1882481;74;26332;-88
2022/08/07 14:42:34;;;;;;;0.57;0.57;;;;;;;;;;1884573;75;26325;-89
2022/08/07 14:45:03;;;;;;;0.40;0.40;;;;;;;;;;1852882;75;26732;-88
2022/08/07 14:47:32;;;;;;;0.50;0.50;;;;;;;;;;1862266;75;26745;-87
2022/08/07 14:50:00;;;;;;;0.45;0.45;;;;;;;;;;1861850;74;26257;-87
2022/08/07 14:52:28;;;;;;;0.60;0.60;;;;;;;;;;1862960;74;26287;-89
2022/08/07 14:54:56;;;;;;;0.50;0.50;;;;;;;;;;1869635;75;26233;-88
2022/08/07 14:57:24;;;;;;;0.55;0.55;;;;;;;;;;1887639;74;26795;-88
2022/08/07 14:59:52;;;;;;;0.50;0.50;;;;;;;;;;1884990;74;26229;-88
2022/08/07 15:02:21;;;;;;;0.50;0.50;;;;;;;;;;1881860;75;26746;-88
2022/08/07 15:04:50;;;;;;;0.55;0.55;;;;;;;;;;1876485;74;26713;-82
2022/08/07 15:07:20;;;;;;;0.50;0.50;;;;;;;;;;1871587;74;26233;-89
2022/08/07 15:09:49;;;;;;;0.50;0.50;;;;;;;;;;1857406;74;26242;-89